Time;durP1;ratioP1;P1;durP2;ratioP2;P2;SDS_P1;SDS_P2;PMS_P1;PMS_P2;Temp;Humidity;BMP_temperature;BMP_pressure;BME280_temperature;BME280_humidity;BME280_pressure;Samples;Min_cycle;Max_cycle;Signal;HPM_P1;HPM_P2
2020/12/13 00:01:15;;;;;;;30.80;17.95;;;;;;;19.12;45.76;99931.34;2283753;77;50102;-79
2020/12/13 00:04:17;;;;;;;28.98;18.70;;;;;;;19.11;45.82;99940.41;2283785;77;50111;-79
2020/12/13 00:07:19;;;;;;;29.52;18.05;;;;;;;19.11;45.81;99941.74;2283652;78;50734;-79
2020/12/13 00:10:22;;;;;;;30.70;18.45;;;;;;;19.08;45.79;99942.16;2283527;78;51564;-78
2020/12/13 00:13:24;;;;;;;26.93;17.48;;;;;;;19.07;45.80;99944.54;2292449;76;50723;-78
2020/12/13 00:16:27;;;;;;;25.70;18.57;;;;;;;19.08;45.80;99953.70;2340895;76;50757;-78
2020/12/13 00:19:29;;;;;;;28.73;18.80;;;;;;;19.05;45.79;99947.93;2340648;75;50318;-77
2020/12/13 00:22:31;;;;;;;27.70;17.75;;;;;;;19.03;45.81;99956.16;2340582;75;50294;-77
2020/12/13 00:25:33;;;;;;;26.97;17.60;;;;;;;19.01;45.81;99962.27;2340200;75;50753;-77
2020/12/13 00:28:36;;;;;;;28.10;18.20;;;;;;;19.01;45.84;99965.44;2325043;76;50971;-78
2020/12/13 00:31:38;;;;;;;33.67;18.25;;;;;;;19.01;45.85;99961.42;2325170;75;50376;-77
2020/12/13 00:34:40;;;;;;;28.83;18.82;;;;;;;18.99;45.81;99966.19;2340608;75;50276;-77
2020/12/13 00:37:42;;;;;;;28.35;18.23;;;;;;;18.98;45.87;99967.19;2331433;76;50787;-78
2020/12/13 00:40:45;;;;;;;29.85;18.42;;;;;;;18.99;45.84;99975.05;2322108;76;51469;-78
2020/12/13 00:43:47;;;;;;;27.25;17.52;;;;;;;18.96;45.87;99979.48;2322546;76;50838;-77
2020/12/13 00:46:49;;;;;;;27.48;18.00;;;;;;;18.95;45.86;99976.98;2325299;76;51478;-77
2020/12/13 00:49:51;;;;;;;28.25;18.40;;;;;;;18.95;45.87;99976.98;2340236;75;51540;-78
2020/12/13 00:52:53;;;;;;;30.90;18.98;;;;;;;18.95;45.84;99980.48;2332120;75;50369;-78
2020/12/13 00:55:56;;;;;;;28.90;18.15;;;;;;;18.91;45.83;99978.73;2322058;76;50559;-77
2020/12/13 00:58:58;;;;;;;27.87;18.00;;;;;;;18.93;45.83;99982.53;2310598;76;50647;-78
2020/12/13 01:02:00;;;;;;;31.02;19.10;;;;;;;18.90;45.88;99991.81;2312243;76;50417;-78
2020/12/13 01:05:02;;;;;;;32.40;18.50;;;;;;;18.88;45.93;99987.19;2323188;76;50690;-78
2020/12/13 01:08:04;;;;;;;27.52;18.77;;;;;;;18.88;45.89;99993.89;2340573;75;51579;-77
2020/12/13 01:11:07;;;;;;;27.35;17.70;;;;;;;18.87;46.00;99992.73;2340109;75;50647;-78
2020/12/13 01:14:09;;;;;;;27.35;18.57;;;;;;;18.90;46.19;100002.53;2340569;76;50724;-78
2020/12/13 01:17:11;;;;;;;28.27;18.45;;;;;;;18.90;46.05;100005.73;2339902;75;51461;-78
2020/12/13 01:20:14;;;;;;;28.17;18.42;;;;;;;18.89;46.10;100006.25;2340094;75;51592;-77
2020/12/13 01:23:16;;;;;;;30.02;17.75;;;;;;;18.87;46.26;100008.30;2340449;76;50347;-77
2020/12/13 01:26:19;;;;;;;28.90;18.23;;;;;;;18.83;46.54;100001.70;2339874;75;50692;-78
2020/12/13 01:29:21;;;;;;;28.35;18.95;;;;;;;18.84;46.32;100010.56;2332475;75;50769;-77
2020/12/13 01:32:23;;;;;;;27.73;17.92;;;;;;;18.82;46.39;100007.25;2321984;76;50342;-77
2020/12/13 01:35:26;;;;;;;30.40;18.60;;;;;;;18.79;46.46;100017.86;2322203;76;50893;-77
2020/12/13 01:38:28;;;;;;;29.37;18.75;;;;;;;18.79;46.45;100009.00;2321642;75;51459;-78
2020/12/13 01:41:30;;;;;;;28.10;19.12;;;;;;;18.78;46.53;100020.23;2322012;76;51510;-77
2020/12/13 01:44:33;;;;;;;27.50;18.15;;;;;;;18.78;46.40;100018.90;2322077;75;51434;-77
2020/12/13 01:47:36;;;;;;;28.70;18.67;;;;;;;18.76;46.48;100026.30;2287151;75;50155;-77
2020/12/13 01:50:44;;;;;;;29.12;18.75;;;;;;;18.74;46.73;100025.64;2296334;76;50258;-77
2020/12/13 01:53:42;;;;;;;31.87;19.00;;;;;;;18.73;46.73;100028.02;2340815;75;22309;-77
2020/12/13 01:56:50;;;;;;;31.40;18.80;;;;;;;18.75;46.52;100027.80;2330508;76;51563;-77
2020/12/13 01:59:52;;;;;;;28.83;18.17;;;;;;;18.73;46.51;100030.70;2321436;75;51663;-77
2020/12/13 02:02:57;;;;;;;28.32;18.87;;;;;;;18.70;46.60;100034.60;2322382;75;51489;-77
2020/12/13 02:06:02;;;;;;;27.07;17.45;;;;;;;18.71;46.61;100039.44;2322529;76;51677;-77
2020/12/13 02:09:04;;;;;;;31.30;19.60;;;;;;;18.67;46.83;100034.97;2322447;76;51588;-78
2020/12/13 02:12:06;;;;;;;29.25;18.48;;;;;;;18.69;46.77;100038.81;2333582;75;52358;-78
2020/12/13 02:15:08;;;;;;;29.37;18.87;;;;;;;18.66;46.73;100036.53;2340777;75;52268;-78
2020/12/13 02:18:11;;;;;;;28.42;18.55;;;;;;;18.66;46.91;100033.84;2323214;75;51558;-77
2020/12/13 02:21:13;;;;;;;28.15;18.60;;;;;;;18.63;46.82;100039.61;2327149;76;51607;-77
2020/12/13 02:24:16;;;;;;;32.53;19.25;;;;;;;18.63;46.79;100044.97;2340723;76;50397;-77
2020/12/13 02:27:18;;;;;;;28.62;19.17;;;;;;;18.62;46.85;100036.59;2329430;76;50461;-77
2020/12/13 02:30:20;;;;;;;30.60;18.48;;;;;;;18.60;46.95;100042.17;2324547;75;50229;-78
2020/12/13 02:33:22;;;;;;;28.17;18.50;;;;;;;18.59;46.98;100038.34;2340376;75;50690;-77
2020/12/13 02:36:24;;;;;;;29.92;19.20;;;;;;;18.59;46.79;100039.16;2331301;75;50743;-78
2020/12/13 02:39:27;;;;;;;31.37;20.00;;;;;;;18.57;46.90;100041.72;2322405;76;51533;-77
2020/12/13 02:42:29;;;;;;;30.92;19.65;;;;;;;18.56;46.88;100044.92;2322759;76;50322;-77
2020/12/13 02:45:31;;;;;;;29.42;19.27;;;;;;;18.56;46.96;100047.60;2336127;76;50184;-77
2020/12/13 02:48:33;;;;;;;29.15;19.17;;;;;;;18.57;46.84;100048.42;2334776;75;51586;-76
2020/12/13 02:51:35;;;;;;;29.72;19.42;;;;;;;18.56;46.75;100053.48;2322259;75;51493;-77
2020/12/13 02:54:38;;;;;;;29.30;19.00;;;;;;;18.55;46.85;100050.46;2322615;76;51589;-76
2020/12/13 02:57:43;;;;;;;34.40;18.95;;;;;;;18.55;46.92;100055.34;2322790;75;50814;-77
2020/12/13 03:00:45;;;;;;;31.05;19.52;;;;;;;18.55;46.80;100057.16;2318247;76;50771;-78
2020/12/13 03:03:47;;;;;;;30.48;18.85;;;;;;;18.54;46.80;100057.68;2322982;76;51344;-78
2020/12/13 03:06:50;;;;;;;31.95;20.40;;;;;;;18.49;46.97;100054.25;2322955;76;50708;-77
2020/12/13 03:09:52;;;;;;;30.65;19.20;;;;;;;18.48;46.93;100055.28;2338875;75;50326;-78
2020/12/13 03:12:54;;;;;;;27.15;18.32;;;;;;;18.49;46.93;100056.92;2330923;75;49978;-77
2020/12/13 03:15:56;;;;;;;27.80;18.62;;;;;;;18.47;47.05;100051.45;2322688;76;51594;-77
2020/12/13 03:18:58;;;;;;;29.05;18.82;;;;;;;18.47;47.02;100063.02;2323225;75;51606;-77
2020/12/13 03:22:00;;;;;;;29.80;19.07;;;;;;;18.48;46.93;100064.66;2336871;75;50789;-77
2020/12/13 03:25:04;;;;;;;32.13;19.27;;;;;;;18.47;47.12;100066.18;2339326;75;50431;-76
2020/12/13 03:28:06;;;;;;;30.62;19.70;;;;;;;18.46;47.10;100081.44;2282806;77;51685;-76
2020/12/13 03:31:08;;;;;;;28.60;18.82;;;;;;;18.46;47.02;100072.06;2305580;76;51628;-78
2020/12/13 03:34:10;;;;;;;29.32;19.48;;;;;;;18.44;47.09;100071.42;2340855;75;50304;-78
2020/12/13 03:37:12;;;;;;;29.37;18.82;;;;;;;18.44;47.10;100078.63;2341086;76;50170;-76
2020/12/13 03:40:15;;;;;;;27.60;19.35;;;;;;;18.44;47.07;100074.09;2340774;75;50146;-77
2020/12/13 03:43:17;;;;;;;28.20;19.20;;;;;;;18.44;46.95;100088.02;2341154;75;50368;-76
2020/12/13 03:46:19;;;;;;;26.62;18.40;;;;;;;18.43;47.05;100079.67;2340934;75;51536;-78
2020/12/13 03:49:21;;;;;;;27.27;18.15;;;;;;;18.43;47.03;100079.16;2340922;75;51542;-77
2020/12/13 03:52:24;;;;;;;30.43;18.65;;;;;;;18.41;47.03;100084.39;2340722;75;51505;-78
2020/12/13 03:55:26;;;;;;;29.87;19.82;;;;;;;18.40;47.04;100086.25;2340307;75;51577;-77
2020/12/13 03:58:28;;;;;;;28.77;18.75;;;;;;;18.39;47.01;100089.93;2322620;76;50444;-77
2020/12/13 04:01:30;;;;;;;30.70;18.85;;;;;;;18.36;47.09;100087.65;2323667;76;50362;-77
2020/12/13 04:04:32;;;;;;;28.40;18.95;;;;;;;18.33;47.31;100091.24;2322765;75;50715;-78
2020/12/13 04:07:35;;;;;;;31.10;20.17;;;;;;;18.33;47.24;100097.42;2322981;76;50576;-76
2020/12/13 04:10:37;;;;;;;28.05;19.27;;;;;;;18.31;47.14;100102.13;2322372;76;51464;-76
2020/12/13 04:13:39;;;;;;;29.00;19.52;;;;;;;18.31;47.17;100102.13;2322556;76;50724;-76
2020/12/13 04:16:41;;;;;;;30.02;19.30;;;;;;;18.28;47.21;100111.39;2322457;76;50663;-77
2020/12/13 04:19:43;;;;;;;34.75;19.00;;;;;;;18.28;47.25;100106.55;2322313;76;51555;-76
2020/12/13 04:22:46;;;;;;;30.05;19.82;;;;;;;18.25;47.35;100100.25;2322440;76;51597;-76
2020/12/13 04:25:48;;;;;;;28.65;18.57;;;;;;;18.24;47.32;100103.44;2333742;76;51477;-77
2020/12/13 04:28:50;;;;;;;30.43;20.05;;;;;;;18.25;47.24;100109.10;2337175;76;50457;-77
2020/12/13 04:31:52;;;;;;;31.27;19.70;;;;;;;18.24;47.23;100103.44;2323296;76;50775;-77
2020/12/13 04:34:54;;;;;;;30.97;19.48;;;;;;;18.22;47.32;100108.16;2322553;76;52338;-77
2020/12/13 04:37:56;;;;;;;30.82;19.02;;;;;;;18.23;47.48;100119.69;2322434;76;51431;-77
2020/12/13 04:40:59;;;;;;;29.57;18.80;;;;;;;18.25;47.29;100125.69;2322233;76;50738;-76
2020/12/13 04:44:02;;;;;;;28.92;19.15;;;;;;;18.23;47.32;100137.09;2322117;76;51654;-77
2020/12/13 04:47:06;;;;;;;30.52;18.73;;;;;;;18.21;47.34;100143.15;2322359;76;50418;-76
2020/12/13 04:50:08;;;;;;;27.73;18.77;;;;;;;18.19;47.47;100145.22;2329515;76;50379;-77
2020/12/13 04:53:10;;;;;;;31.87;18.75;;;;;;;18.19;47.37;100138.52;2340307;75;50368;-77
2020/12/13 04:56:13;;;;;;;30.70;19.70;;;;;;;18.18;47.31;100138.19;2327222;76;51577;-77
2020/12/13 04:59:15;;;;;;;30.88;19.32;;;;;;;18.16;47.62;100138.88;2322349;76;51549;-78
2020/12/13 05:02:17;;;;;;;29.20;18.57;;;;;;;18.15;47.44;100141.25;2322378;76;51538;-77
2020/12/13 05:05:21;;;;;;;31.17;18.40;;;;;;;18.15;47.45;100135.90;2331804;76;50356;-78
2020/12/13 05:08:23;;;;;;;27.55;18.80;;;;;;;18.14;47.46;100137.75;2340422;75;50303;-78
2020/12/13 05:11:25;;;;;;;28.23;18.57;;;;;;;18.13;47.49;100149.98;2324756;76;50387;-77
2020/12/13 05:14:28;;;;;;;29.15;18.87;;;;;;;18.13;47.48;100154.00;2301139;75;50364;-78
2020/12/13 05:17:30;;;;;;;29.87;19.45;;;;;;;18.13;47.44;100148.64;2281334;77;50425;-78
2020/12/13 05:20:32;;;;;;;32.17;19.57;;;;;;;18.12;47.34;100151.02;2281383;76;50327;-78
2020/12/13 05:23:34;;;;;;;28.47;19.00;;;;;;;18.14;47.28;100143.62;2322246;75;50765;-77
2020/12/13 05:26:37;;;;;;;29.00;18.95;;;;;;;18.17;47.23;100145.91;2322102;76;51510;-77
2020/12/13 05:29:43;;;;;;;27.05;18.65;;;;;;;18.20;47.14;100148.20;2337671;75;52219;-78
2020/12/13 05:32:43;;;;;;;28.15;18.50;;;;;;;18.25;47.01;100152.47;2340273;75;22285;-77
2020/12/13 05:35:45;;;;;;;27.10;18.40;;;;;;;18.29;46.87;100165.80;2340616;76;51470;-77
2020/12/13 05:38:47;;;;;;;28.45;18.25;;;;;;;18.31;46.84;100167.75;2339884;75;52218;-77
2020/12/13 05:41:52;;;;;;;30.62;18.37;;;;;;;18.35;46.84;100161.00;2340546;76;50265;-77
2020/12/13 05:48:23;;;;;;;24.00;17.62;;;;;;;18.37;46.72;100170.16;2322973;76;22957;-77
2020/12/13 05:51:19;;;;;;;27.45;18.48;;;;;;;18.38;46.64;100169.98;2320010;76;22363;-78
2020/12/13 05:54:21;;;;;;;31.20;18.80;;;;;;;18.41;46.61;100166.91;2321845;75;22164;-78
2020/12/13 05:57:22;;;;;;;29.20;19.30;;;;;;;18.41;46.57;100167.43;2323654;76;22188;-78
2020/12/13 06:00:24;;;;;;;27.73;18.77;;;;;;;18.43;46.57;100166.73;2323398;76;51508;-78
2020/12/13 06:03:33;;;;;;;26.85;18.48;;;;;;;18.55;46.25;100165.19;2341039;75;50261;-78
2020/12/13 06:06:36;;;;;;;24.43;16.73;;;;;;;18.66;45.98;100175.87;2340394;76;50791;-76
2020/12/13 06:09:44;;;;;;;24.87;16.65;;;;;;;18.78;45.75;100170.33;2340432;75;50705;-77
2020/12/13 06:12:46;;;;;;;24.45;16.45;;;;;;;18.78;45.76;100176.18;2340943;75;22270;-77
2020/12/13 06:15:48;;;;;;;23.73;15.75;;;;;;;18.81;45.68;100184.67;2338519;76;50152;-77
2020/12/13 06:18:50;;;;;;;27.32;17.20;;;;;;;18.86;45.60;100184.91;2318246;76;50678;-77
2020/12/13 06:21:54;;;;;;;24.40;16.85;;;;;;;18.87;45.56;100185.73;2300815;76;51971;-77
2020/12/13 06:24:56;;;;;;;29.98;18.23;;;;;;;18.87;45.57;100199.14;2322602;76;52437;-77
2020/12/13 06:27:58;;;;;;;27.73;17.85;;;;;;;18.88;45.57;100207.00;2322222;76;50383;-77
2020/12/13 06:31:04;;;;;;;28.27;18.42;;;;;;;18.87;45.65;100208.01;2309627;75;50337;-78
2020/12/13 06:34:06;;;;;;;26.77;17.77;;;;;;;18.90;45.60;100206.78;2320951;76;50440;-77
2020/12/13 06:37:08;;;;;;;26.90;17.65;;;;;;;18.93;45.49;100204.56;2327756;75;50741;-78
2020/12/13 06:40:18;;;;;;;22.37;16.17;;;;;;;18.99;45.37;100194.08;2340079;76;50351;-78
2020/12/13 06:43:17;;;;;;;31.35;18.62;;;;;;;19.01;45.35;100198.22;2336305;75;22578;-75
2020/12/13 06:46:19;;;;;;;25.15;15.50;;;;;;;19.06;45.31;100201.62;2331867;75;50785;-76
2020/12/13 06:49:21;;;;;;;30.30;17.62;;;;;;;19.10;45.23;100208.27;2321915;75;50699;-76
2020/12/13 06:52:32;;;;;;;25.27;17.00;;;;;;;19.13;45.15;100218.07;2321333;75;52312;-77
2020/12/13 06:55:34;;;;;;;24.10;16.42;;;;;;;19.22;44.97;100215.25;2313512;76;51579;-76
2020/12/13 06:58:47;;;;;;;25.60;16.23;;;;;;;19.24;44.89;100231.47;2314560;76;50322;-76
2020/12/13 07:01:49;;;;;;;25.45;16.75;;;;;;;19.25;44.88;100234.45;2314810;77;50379;-76
2020/12/13 07:04:51;;;;;;;26.65;16.60;;;;;;;19.29;44.73;100233.05;2307937;76;50752;-76
2020/12/13 07:07:54;;;;;;;25.30;15.85;;;;;;;19.31;44.68;100230.97;2276709;77;50279;-76
2020/12/13 07:10:56;;;;;;;24.15;17.25;;;;;;;19.32;44.65;100244.72;2276607;76;50414;-76
2020/12/13 07:14:11;;;;;;;26.33;17.15;;;;;;;19.32;44.65;100243.38;2276589;76;51599;-76
2020/12/13 07:17:16;;;;;;;24.77;16.62;;;;;;;19.35;44.54;100255.05;2276985;77;22581;-76
2020/12/13 07:20:17;;;;;;;24.87;16.60;;;;;;;19.39;44.47;100264.03;2304030;76;21675;-76
2020/12/13 07:23:19;;;;;;;25.95;16.52;;;;;;;19.46;44.28;100258.20;2323589;75;50702;-76
2020/12/13 07:26:21;;;;;;;24.27;16.20;;;;;;;19.45;44.28;100264.60;2323375;76;51480;-75
2020/12/13 07:29:24;;;;;;;23.57;15.45;;;;;;;19.49;44.19;100259.14;2322122;75;51501;-76
2020/12/13 07:32:26;;;;;;;26.23;16.65;;;;;;;19.52;44.21;100262.27;2322373;76;50333;-76
2020/12/13 07:35:28;;;;;;;25.20;16.48;;;;;;;19.54;44.22;100274.13;2322243;76;50207;-76
2020/12/13 07:38:30;;;;;;;26.15;16.17;;;;;;;19.57;44.26;100271.04;2322213;76;50709;-76
2020/12/13 07:41:32;;;;;;;26.62;17.48;;;;;;;19.58;44.23;100274.88;2317830;76;50679;-75
2020/12/13 07:44:35;;;;;;;26.97;15.85;;;;;;;19.60;44.14;100285.44;2320171;76;51568;-76
2020/12/13 07:47:37;;;;;;;24.90;16.32;;;;;;;19.64;44.03;100286.67;2304141;76;51525;-75
2020/12/13 07:50:47;;;;;;;26.27;16.27;;;;;;;19.67;43.95;100280.11;2308877;75;50333;-76
2020/12/13 07:53:49;;;;;;;25.88;16.75;;;;;;;19.66;43.89;100279.26;2321935;75;50728;-76
2020/12/13 07:56:52;;;;;;;22.95;16.02;;;;;;;19.70;43.76;100291.27;2322674;76;51551;-77
2020/12/13 07:59:55;;;;;;;29.75;17.60;;;;;;;19.72;43.71;100308.00;2320317;76;51720;-76
2020/12/13 08:02:57;;;;;;;23.10;16.27;;;;;;;19.75;43.62;100299.55;2320351;76;50487;-75
2020/12/13 08:06:02;;;;;;;23.47;15.63;;;;;;;19.76;43.61;100302.56;2320403;76;50853;-76
2020/12/13 08:09:11;;;;;;;25.30;16.35;;;;;;;19.78;43.60;100315.77;2320372;76;51519;-77
2020/12/13 08:12:14;;;;;;;24.65;16.85;;;;;;;19.82;43.49;100311.67;2316317;76;51544;-77
2020/12/13 08:15:16;;;;;;;24.77;16.90;;;;;;;19.85;43.35;100308.59;2281366;77;51481;-76
2020/12/13 08:18:19;;;;;;;25.88;17.23;;;;;;;19.86;43.44;100317.47;2281304;76;51520;-76
2020/12/13 08:21:27;;;;;;;25.68;15.65;;;;;;;19.86;43.61;100314.78;2319480;76;52299;-76
2020/12/13 08:24:30;;;;;;;23.65;16.23;;;;;;;19.84;43.77;100319.02;2322468;76;51480;-77
2020/12/13 08:27:34;;;;;;;25.32;15.45;;;;;;;19.87;43.87;100323.98;2322291;76;50665;-77
2020/12/13 08:30:36;;;;;;;24.12;16.67;;;;;;;19.90;44.01;100340.22;2322158;76;51531;-77
2020/12/13 08:33:39;;;;;;;23.42;15.40;;;;;;;19.93;44.11;100344.66;2322340;76;50368;-78
2020/12/13 08:36:41;;;;;;;26.40;16.12;;;;;;;19.95;44.16;100344.48;2322195;76;51380;-77
2020/12/13 08:39:44;;;;;;;26.15;16.07;;;;;;;19.96;44.28;100359.55;2274501;76;50873;-77
2020/12/13 08:42:46;;;;;;;24.98;15.20;;;;;;;19.96;44.32;100360.40;2322193;76;50694;-77
2020/12/13 08:45:54;;;;;;;25.65;15.98;;;;;;;20.01;44.31;100361.12;2300107;76;51550;-77
2020/12/13 08:48:57;;;;;;;25.92;15.53;;;;;;;20.03;44.30;100351.53;2323291;76;50557;-77
2020/12/13 08:52:14;;;;;;;25.45;15.70;;;;;;;20.03;44.47;100359.07;2323335;75;50682;-77
2020/12/13 08:55:20;;;;;;;22.77;14.40;;;;;;;20.04;44.48;100363.92;2323292;76;50740;-77
2020/12/13 08:58:22;;;;;;;29.07;15.75;;;;;;;20.05;44.58;100365.08;2320930;75;51675;-77
2020/12/13 09:01:29;;;;;;;24.32;15.08;;;;;;;20.11;44.53;100381.73;2321082;76;51617;-76
2020/12/13 09:04:30;;;;;;;27.80;15.80;;;;;;;20.08;44.56;100378.10;2321791;75;22227;-77
2020/12/13 09:07:32;;;;;;;26.30;14.80;;;;;;;20.12;44.49;100390.12;2315434;75;22125;-76
2020/12/13 09:10:38;;;;;;;27.07;15.98;;;;;;;20.14;44.44;100393.44;2320179;76;50773;-77
2020/12/13 09:13:51;;;;;;;24.45;15.58;;;;;;;20.14;44.41;100382.70;2319863;76;51596;-76
2020/12/13 09:16:53;;;;;;;21.82;15.03;;;;;;;20.14;44.43;100380.01;2319882;76;50769;-77
2020/12/13 09:19:55;;;;;;;25.08;16.02;;;;;;;20.14;44.43;100381.35;2320801;76;51540;-77
2020/12/13 09:23:11;;;;;;;25.35;16.07;;;;;;;20.15;44.41;100383.52;2322068;76;51196;-77
2020/12/13 09:26:15;;;;;;;25.35;15.40;;;;;;;20.16;44.36;100388.67;2304823;76;51612;-77
2020/12/13 09:29:17;;;;;;;22.10;15.32;;;;;;;20.21;44.25;100394.80;2291839;76;51001;-78
2020/12/13 09:32:21;;;;;;;22.45;14.58;;;;;;;20.20;44.28;100398.52;2283420;76;51493;-77
2020/12/13 09:35:23;;;;;;;22.82;15.18;;;;;;;20.19;44.85;100399.05;2283436;78;50418;-77
2020/12/13 09:38:25;;;;;;;25.05;15.72;;;;;;;20.22;44.96;100410.73;2283418;78;50706;-77
2020/12/13 09:41:27;;;;;;;22.17;14.58;;;;;;;20.28;45.01;100412.30;2283534;78;51470;-77
2020/12/13 09:44:30;;;;;;;25.20;15.28;;;;;;;20.26;45.22;100411.14;2306053;76;51559;-78
2020/12/13 09:47:32;;;;;;;28.90;13.70;;;;;;;20.28;45.34;100411.78;2304270;76;50278;-77
2020/12/13 09:50:34;;;;;;;29.35;14.95;;;;;;;20.43;44.98;100412.98;2320515;76;50070;-78
2020/12/13 09:53:36;;;;;;;28.85;15.18;;;;;;;20.48;45.12;100407.84;2322314;75;50708;-77
2020/12/13 09:56:38;;;;;;;26.23;14.15;;;;;;;20.53;45.29;100401.34;2321802;76;51500;-77
2020/12/13 09:59:41;;;;;;;28.52;14.73;;;;;;;20.56;45.42;100399.62;2321730;76;51498;-76
2020/12/13 10:02:43;;;;;;;28.60;14.35;;;;;;;20.57;45.53;100399.92;2321949;76;50395;-76
2020/12/13 10:06:35;;;;;;;35.73;14.90;;;;;;;20.60;45.52;100398.69;2322154;75;51566;-77
2020/12/13 10:09:02;;;;;;;36.58;14.87;;;;;;;20.67;45.49;100400.88;2295923;75;22388;-77
2020/12/13 10:11:59;;;;;;;29.48;14.93;;;;;;;20.64;45.68;100399.43;2321335;76;22324;-77
2020/12/13 10:15:02;;;;;;;34.05;15.38;;;;;;;20.68;45.91;100397.67;2310718;76;51579;-75
2020/12/13 10:18:05;;;;;;;36.85;14.18;;;;;;;20.74;45.68;100391.50;2296830;76;50560;-76
2020/12/13 10:21:07;;;;;;;30.00;15.13;;;;;;;20.81;45.58;100396.39;2301628;76;50025;-77
2020/12/13 10:24:09;;;;;;;35.68;15.15;;;;;;;20.87;45.51;100396.91;2281078;77;50724;-76
2020/12/13 10:27:11;;;;;;;28.17;14.23;;;;;;;20.81;45.59;100397.73;2285772;75;50749;-77
2020/12/13 10:30:13;;;;;;;31.55;14.58;;;;;;;20.87;45.58;100396.37;2321748;75;51489;-77
2020/12/13 10:33:16;;;;;;;28.83;15.00;;;;;;;20.88;45.60;100407.47;2321929;75;51543;-77
2020/12/13 10:36:18;;;;;;;28.80;15.80;;;;;;;20.87;45.71;100410.34;2321801;75;50267;-76
2020/12/13 10:39:20;;;;;;;29.32;14.40;;;;;;;20.95;45.51;100414.19;2313214;76;52418;-75
2020/12/13 10:42:22;;;;;;;25.35;13.78;;;;;;;20.97;45.43;100414.81;2321159;75;50695;-75
2020/12/13 10:45:24;;;;;;;25.48;14.73;;;;;;;21.00;45.45;100417.61;2322071;76;50691;-76
2020/12/13 10:48:27;;;;;;;30.27;15.13;;;;;;;21.02;45.30;100416.37;2322049;76;51517;-76
2020/12/13 10:51:29;;;;;;;28.50;14.87;;;;;;;21.04;45.41;100418.84;2322186;75;50417;-76
2020/12/13 10:54:31;;;;;;;28.20;14.63;;;;;;;21.10;45.18;100420.20;2321886;76;50362;-77
2020/12/13 10:57:33;;;;;;;25.05;14.80;;;;;;;21.09;45.22;100420.41;2322524;75;50728;-77
2020/12/13 11:00:35;;;;;;;27.67;13.80;;;;;;;21.07;45.30;100425.19;2320836;76;50702;-76
2020/12/13 11:03:38;;;;;;;25.48;14.25;;;;;;;21.05;45.39;100422.69;2320315;76;51491;-76
2020/12/13 11:06:40;;;;;;;25.92;14.00;;;;;;;21.04;45.43;100421.04;2310671;76;51465;-72
2020/12/13 11:09:42;;;;;;;25.55;14.43;;;;;;;21.05;45.43;100419.99;2302925;76;50369;-74
2020/12/13 11:12:44;;;;;;;27.58;15.43;;;;;;;21.07;45.50;100415.25;2274643;76;50418;-72
2020/12/13 11:15:47;;;;;;;26.80;15.00;;;;;;;21.14;45.35;100417.09;2274706;78;50614;-73
2020/12/13 11:18:49;;;;;;;34.65;14.30;;;;;;;21.11;45.45;100422.38;2274546;77;51576;-75
2020/12/13 11:21:51;;;;;;;25.20;14.55;;;;;;;21.24;45.18;100418.34;2305567;76;50477;-74
2020/12/13 11:24:54;;;;;;;23.60;14.03;;;;;;;21.22;45.29;100427.66;2320619;76;50115;-74
2020/12/13 11:27:57;;;;;;;28.57;15.20;;;;;;;21.20;45.41;100427.06;2320624;75;50286;-74
2020/12/13 11:30:59;;;;;;;24.75;14.15;;;;;;;21.21;45.46;100434.08;2316662;75;51530;-75
2020/12/13 11:34:01;;;;;;;27.40;14.38;;;;;;;21.25;45.52;100436.69;2317063;75;50363;-76
2020/12/13 11:37:07;;;;;;;24.95;14.23;;;;;;;21.25;45.39;100438.03;2315364;75;50726;-75
2020/12/13 11:40:09;;;;;;;24.00;14.47;;;;;;;21.31;45.05;100442.58;2320020;76;51430;-74
2020/12/13 11:43:11;;;;;;;26.20;14.93;;;;;;;21.31;45.05;100442.58;2304758;76;51649;-74
2020/12/13 11:46:13;;;;;;;27.62;14.70;;;;;;;21.28;45.07;100442.48;2321966;75;51525;-73
2020/12/13 11:49:16;;;;;;;29.52;14.90;;;;;;;21.36;44.89;100446.83;2321904;76;50366;-76
2020/12/13 11:52:19;;;;;;;41.00;15.18;;;;;;;21.37;45.14;100442.27;2315533;75;50721;-77
2020/12/13 11:55:21;;;;;;;42.30;15.70;;;;;;;21.37;45.28;100436.36;2320645;75;51638;-73
2020/12/13 11:58:23;;;;;;;34.98;15.32;;;;;;;21.36;45.33;100436.06;2320403;76;50216;-73
2020/12/13 12:01:25;;;;;;;43.90;15.68;;;;;;;21.44;45.26;100439.92;2322133;76;50782;-73
2020/12/13 12:04:27;;;;;;;39.90;14.43;;;;;;;21.44;45.34;100436.41;2322207;76;51505;-77
2020/12/13 12:07:30;;;;;;;25.80;13.90;;;;;;;21.39;45.46;100435.67;2322028;76;51626;-76
2020/12/13 12:10:32;;;;;;;27.25;14.38;;;;;;;21.34;45.61;100432.74;2322051;76;50310;-72
2020/12/13 12:13:34;;;;;;;27.17;13.72;;;;;;;21.27;45.65;100437.28;2266926;77;50454;-73
2020/12/13 12:16:37;;;;;;;32.83;14.70;;;;;;;21.26;45.79;100431.61;2313537;76;50750;-75
2020/12/13 12:19:45;;;;;;;30.60;14.55;;;;;;;21.29;45.40;100427.15;2313442;77;50141;-75
2020/12/13 12:22:47;;;;;;;31.12;15.18;;;;;;;21.26;45.40;100430.27;2313021;76;51628;-77
2020/12/13 12:25:50;;;;;;;36.55;15.63;;;;;;;21.27;45.28;100427.87;2283174;76;51434;-76
2020/12/13 12:28:52;;;;;;;29.85;15.35;;;;;;;21.29;45.13;100429.84;2276170;77;50313;-77
2020/12/13 12:31:55;;;;;;;27.52;13.78;;;;;;;21.28;45.05;100438.44;2313216;76;50686;-77
2020/12/13 12:34:57;;;;;;;28.85;14.98;;;;;;;21.23;45.17;100440.09;2320302;76;52134;-78
2020/12/13 12:37:59;;;;;;;53.00;16.02;;;;;;;21.22;45.10;100446.00;2320592;76;51550;-78
2020/12/13 12:41:01;;;;;;;34.25;15.20;;;;;;;21.17;45.47;100448.97;2320685;76;50326;-79
2020/12/13 12:44:03;;;;;;;40.95;16.17;;;;;;;21.10;45.75;100455.18;2320379;76;50454;-78
2020/12/13 12:47:06;;;;;;;39.50;15.63;;;;;;;21.11;46.16;100453.31;2320793;76;50763;-79
2020/12/13 12:50:08;;;;;;;30.23;15.30;;;;;;;21.08;46.32;100454.55;2334203;75;50766;-77
2020/12/13 12:53:10;;;;;;;31.70;16.20;;;;;;;21.13;46.47;100447.74;2355498;75;51423;-78
2020/12/13 12:56:13;;;;;;;43.33;17.50;;;;;;;21.18;46.53;100456.03;2331500;75;50709;-78
2020/12/13 12:59:22;;;;;;;42.48;16.42;;;;;;;21.18;46.59;100456.03;2313335;76;51472;-79
2020/12/13 13:02:19;;;;;;;41.88;16.70;;;;;;;21.17;46.88;100459.24;2321260;76;22472;-78
2020/12/13 13:05:29;;;;;;;42.50;17.52;;;;;;;21.17;47.02;100462.42;2321922;76;50698;-78
2020/12/13 13:08:36;;;;;;;37.10;16.27;;;;;;;21.15;47.04;100461.83;2321213;76;22216;-79
2020/12/13 13:11:36;;;;;;;39.03;16.75;;;;;;;21.15;46.91;100461.83;2321948;76;22915;-77
2020/12/13 13:14:38;;;;;;;38.02;17.50;;;;;;;21.08;47.01;100463.97;2322159;76;52004;-79
2020/12/13 13:17:46;;;;;;;32.15;15.50;;;;;;;21.04;47.05;100465.42;2322333;76;50310;-79
2020/12/13 13:20:44;;;;;;;34.67;16.77;;;;;;;20.98;47.14;100464.05;2321655;76;22480;-75
2020/12/13 13:23:46;;;;;;;38.25;17.67;;;;;;;21.02;47.08;100465.31;2322020;76;52603;-75
2020/12/13 13:26:49;;;;;;;32.42;16.25;;;;;;;21.00;47.22;100466.85;2322073;76;50265;-75
2020/12/13 13:29:51;;;;;;;33.30;16.05;;;;;;;20.99;47.38;100476.46;2321928;75;50445;-75
2020/12/13 13:32:54;;;;;;;31.70;17.57;;;;;;;20.99;47.42;100471.94;2321901;76;50325;-73
2020/12/13 13:35:56;;;;;;;31.23;16.55;;;;;;;21.02;47.43;100472.04;2321773;75;50400;-74
2020/12/13 13:38:59;;;;;;;40.17;17.37;;;;;;;21.07;47.59;100486.53;2321751;76;50326;-76
2020/12/13 13:42:01;;;;;;;57.08;17.40;;;;;;;21.07;47.70;100486.53;2321742;76;50367;-75
2020/12/13 13:51:29;;;;;;;45.23;17.17;;;;;;;21.14;47.72;100497.81;2315195;75;23626;-75
2020/12/13 13:54:32;;;;;;;46.50;17.48;;;;;;;21.17;47.77;100504.13;2313980;76;50458;-73
2020/12/13 13:57:34;;;;;;;35.63;16.87;;;;;;;21.14;47.94;100505.89;2319622;76;50404;-72
2020/12/13 14:00:37;;;;;;;35.48;16.77;;;;;;;21.13;47.93;100514.48;2321493;75;51562;-73